Архив погоды в Ефимовской

Метеограмма Ефимовская
Вторник, 23 Июля
Время местн. Темп Ветер Видим Явления Облачность нижн/средн/верх Атм. давл. Влжн Точка росы ВНГО R Сост. почвы Tg s
Напр Скр Прв ур.ст ур.м изм
09:00 +20.9° штиль 0 - 20 км - ясно 745 760 -0.5 52% +10.7° более 2.5 км 0 Влажная (без луж) - -
06:00 - +10.4° штиль 0 - - - - 745 761 -0.2 99% +10.2° - - - - -
03:00 - +8.3° штиль 0 - - - - 745 761 -0.2 99% +8.2° - - - - -
00:00 - +10.1° штиль 0 - - - - 746 761 -0.1 98% +9.8° - - - - -
Понедельник, 22 Июля
Время местн. Темп Ветер Видим Явления Облачность нижн/средн/верх Атм. давл. Влжн Точка росы ВНГО R Сост. почвы Tg s
Напр Скр Прв ур.ст ур.м изм
21:00 +16.3° штиль 0 - 20 км - ясно 746 761 -0.2 83% +13.5° более 2.5 км 0 - - -
18:00 - +24.6° С,С-В 1 - - - - 746 761 -0.8 33% +7.3° - - - - -
15:00 - +24.7° С 1 - - - - 747 762 -0.3 36% +8.6° - - - - -
12:00 - +22.7° С,С-З 2 - - - - 747 762 -0.5 43% +9.5° - - - - -
09:00 +20.1° В 1 - 20 км - переменная облачность 748 763 -0.3 59% +11.8° более 2.5 км 0 Влажная (без луж) - -
06:00 - +10.6° штиль 0 - - - - 748 764 0 99% +10.4° - - - - -
03:00 - +8.5° штиль 0 - - - - 748 764 +0.2 99% +8.4° - - - - -
00:00 - +10.5° штиль 0 - - - - 748 764 +0.2 99% +10.3° - - - - -
Воскресенье, 21 Июля
Время местн. Темп Ветер Видим Явления Облачность нижн/средн/верх Атм. давл. Влжн Точка росы ВНГО R Сост. почвы Tg s
Напр Скр Прв ур.ст ур.м изм
21:00 +16.5° штиль 0 - 20 км - облачно с прояснениями 748 763 +0.4 75% +12.1° более 2.5 км 0 - - -
18:00 - +23.3° З 3 - - - - 747 762 -0.5 42% +9.6° - - - - -
15:00 - +22.5° С,С-З 2 - - - - 748 763 +0.3 51% +12° - - - - -
12:00 - +21.1° С,С-З 2 - - - - 747 763 +0.5 59% +12.7° - - - - -
09:00 +17.9° С,С-З 2 - 20 км - облачно с прояснениями 747 762 +0.5 78% +14.1° 1 км 0.4 Сырая (есть малые или большие лужи) - -
06:00 - +12.4° С,С-З 1 - - - - 746 762 +0.6 99% +12.3° - - - - -
03:00 - +11.3° штиль 0 - - - - 746 762 +0.8 99% +11.1° - - - - -
00:00 - +13.6° С,С-З 1 - - - - 745 761 +1 99% +13.4° - - - - -
Суббота, 20 Июля
Время местн. Темп Ветер Видим Явления Облачность нижн/средн/верх Атм. давл. Влжн Точка росы ВНГО R Сост. почвы Tg s
Напр Скр Прв ур.ст ур.м изм
21:00 +16.4° С-З 1 - 4 км - облачно с прояснениями 744 759 +1 97% +16° 1 км 8 - - -
18:00 - +17.3° З,С-З 2 - - - - 743 758 +0.9 96% +16.7° - - - - -
15:00 - +17.9° З 1 - - - - 742 758 +0.7 93% +16.7° - - - - -
12:00 - +17.4° З,С-З 2 - - - - 742 757 +0.9 85% +14.8° - - - - -
09:00 +15.4° З,С-З 1 - 20 км - облачно 741 756 +0.7 94% +14.5° 600 м 2 Влажная (без луж) - -
06:00 - +12.8° С-З 1 - - - - 740 756 +0.5 99% +12.6° - - - - -